Hanjin Ottawa — DANM — position and weather

sailwx.info

Track history (hours):
 
Tides and Currents Weather Stations Pressure Air Temp Water Temp Dewpoint Dewpoint Depression Visibility Wind Speed Wind Dir Waves Ship Positions

Hanjin Ottawa

Last reported at 2014-Jul-17 11:09 UTC. Time now 2014-Jul-30 03:02 UTC.
Position N 31°06' E 122°25'.
Warning: this ship's position is 12 days out of date.

Length 278.8 m; beam 40.3 m; draft 14 m.

Type: Ship. MMSI: 211378360.

Date/timePositionNaut miles runAvg speedWind from/ knotsBaromVisibWave heightAir tempDewpointWater temp
2014-Jul-17 11:09N 31°06' E 122°25'2313.9
2014-Jul-17 09:29N 31°15' E 121°59'1314.3
2014-Jul-17 08:33N 31°19' E 121°45'4 3.6
2014-Jul-17 07:23N 31°20' E 121°40'0 0.0
2014-Jul-17 06:06N 31°20' E 121°40'0 0.0
2014-Jul-17 05:24N 31°20' E 121°40'0 0.0
2014-Jul-17 04:15N 31°20' E 121°40'0 0.0
2014-Jul-17 03:21N 31°20' E 121°40'0 0.0
2014-Jul-17 02:20N 31°20' E 121°40'0 0.0
2014-Jul-17 01:31N 31°20' E 121°40'0 0.0
2014-Jul-17 00:28N 31°20' E 121°40'0 0.0
2014-Jul-16 23:21N 31°20' E 121°40'0 0.0
2014-Jul-16 21:29N 31°20' E 121°40'0 0.0
2014-Jul-16 20:10N 31°20' E 121°40'0 0.0
2014-Jul-16 19:22N 31°20' E 121°40'0 0.0
2014-Jul-16 17:27N 31°20' E 121°40'0 0.0
2014-Jul-16 16:30N 31°20' E 121°40'0 0.0
2014-Jul-16 15:23N 31°20' E 121°40'0 0.0
2014-Jul-16 14:17N 31°20' E 121°40'0 0.0
2014-Jul-16 13:29N 31°20' E 121°40'0 0.0
2014-Jul-16 12:28N 31°20' E 121°40'0 0.0
2014-Jul-16 11:33N 31°20' E 121°40'0 0.0
2014-Jul-16 10:32N 31°20' E 121°40'0 0.0
2014-Jul-16 09:33N 31°20' E 121°40'0 0.0
2014-Jul-16 08:20N 31°20' E 121°40'0 0.0
2014-Jul-16 07:19N 31°20' E 121°40'1 1.1
2014-Jul-16 06:33N 31°21' E 121°39'8 6.9
2014-Jul-16 05:25N 31°18' E 121°48'2711.5
2014-Jul-16 03:05N 31°07' E 122°17'910.8
2014-Jul-16 02:12N 31°07' E 122°28'9 1.2
2014-Jul-15 18:12N 31°13' E 122°36'15 9.1
2014-Jul-15 16:32N 31°00' E 122°45'1414.3
2014-Jul-15 15:33N 30°48' E 122°53'1714.4
2014-Jul-15 14:21N 30°32' E 123°00'3612.1
2014-Jul-15 11:22N 29°57' E 122°49'1112.6
2014-Jul-15 10:31N 29°50' E 122°39'1212.3
2014-Jul-15 09:33N 29°44' E 122°28'1212.0
2014-Jul-15 08:33N 29°48' E 122°15'1010.3
2014-Jul-15 07:33N 29°55' E 122°06'1211.9
2014-Jul-15 06:33N 29°57' E 121°53'3 2.5
2014-Jul-15 05:33N 29°57' E 121°50'0 0.0
2014-Jul-15 04:32N 29°57' E 121°50'0 0.0
2014-Jul-15 03:32N 29°57' E 121°50'0 0.0
2014-Jul-15 02:32N 29°57' E 121°50'0 0.0
2014-Jul-15 01:30N 29°57' E 121°50'0 0.0
2014-Jul-15 00:33N 29°57' E 121°50'0 0.0
2014-Jul-14 23:33N 29°57' E 121°50'0 0.0
2014-Jul-14 22:28N 29°57' E 121°50'0 0.0
2014-Jul-14 21:33N 29°57' E 121°50'0 0.0
2014-Jul-14 20:28N 29°57' E 121°50'0 0.0
2014-Jul-14 19:32N 29°57' E 121°50'0 0.0
2014-Jul-14 18:28N 29°57' E 121°50'0 0.0
2014-Jul-14 17:28N 29°57' E 121°50'3 3.3
2014-Jul-14 16:33N 29°57' E 121°53'1 0.7
2014-Jul-14 15:33N 29°57' E 121°54'0 0.1
2014-Jul-14 14:33N 29°57' E 121°54'7 6.9
2014-Jul-14 13:33N 29°56' E 122°02'1212.4
2014-Jul-14 12:33N 29°49' E 122°14'6 5.5
2014-Jul-14 11:22N 29°46' E 122°20'0 0.1
2014-Jul-14 10:22N 29°46' E 122°20'0 0.2
2014-Jul-14 09:33N 29°45' E 122°21'0 0.0
2014-Jul-14 08:27N 29°45' E 122°21'0 0.2
2014-Jul-14 07:33N 29°46' E 122°21'0 0.0
2014-Jul-14 06:14N 29°46' E 122°21'0 0.1
2014-Jul-14 05:32N 29°46' E 122°21'0 0.1
2014-Jul-14 04:33N 29°46' E 122°21'1211.8
2014-Jul-14 03:33N 29°50' E 122°33'1413.8
2014-Jul-14 02:32N 29°58' E 122°47'1814.5
2014-Jul-14 01:19N 30°09' E 123°03'  
2014-Jul-10 09:00N 38°42' E 135°36'3718.7 040 / 7993.2 2.2 23.022.321.0
2014-Jul-10 07:00N 39°00' E 136°18'15015.0 310 / 9994.0 2.2 1.023.022.322.0
2014-Jul-09 21:00N 40°30' E 138°54'   190 / 71002.0 2.2 19.719.020.0
Track history (hours):
 
Tides and Currents Weather Stations Pressure Air Temp Water Temp Dewpoint Dewpoint Depression Visibility Wind Speed Wind Dir Waves Ship Positions

Hanjin Ottawa

Last reported at 2014-Jul-17 11:09 UTC. Time now 2014-Jul-30 03:02 UTC.
Position N 31°06' E 122°25'.
Warning: this ship's position is 12 days out of date.

Length 278.8 m; beam 40.3 m; draft 14 m.

Type: Ship. MMSI: 211378360.

Date/timePositionNaut miles runAvg speedWind from/ knotsBaromVisibWave heightAir tempDewpointWater temp
2014-Jul-17 11:09N 31°06' E 122°25'2313.9
2014-Jul-17 09:29N 31°15' E 121°59'1314.3
2014-Jul-17 08:33N 31°19' E 121°45'4 3.6
2014-Jul-17 07:23N 31°20' E 121°40'0 0.0
2014-Jul-17 06:06N 31°20' E 121°40'0 0.0
2014-Jul-17 05:24N 31°20' E 121°40'0 0.0
2014-Jul-17 04:15N 31°20' E 121°40'0 0.0
2014-Jul-17 03:21N 31°20' E 121°40'0 0.0
2014-Jul-17 02:20N 31°20' E 121°40'0 0.0
2014-Jul-17 01:31N 31°20' E 121°40'0 0.0
2014-Jul-17 00:28N 31°20' E 121°40'0 0.0
2014-Jul-16 23:21N 31°20' E 121°40'0 0.0
2014-Jul-16 21:29N 31°20' E 121°40'0 0.0
2014-Jul-16 20:10N 31°20' E 121°40'0 0.0
2014-Jul-16 19:22N 31°20' E 121°40'0 0.0
2014-Jul-16 17:27N 31°20' E 121°40'0 0.0
2014-Jul-16 16:30N 31°20' E 121°40'0 0.0
2014-Jul-16 15:23N 31°20' E 121°40'0 0.0
2014-Jul-16 14:17N 31°20' E 121°40'0 0.0
2014-Jul-16 13:29N 31°20' E 121°40'0 0.0
2014-Jul-16 12:28N 31°20' E 121°40'0 0.0
2014-Jul-16 11:33N 31°20' E 121°40'0 0.0
2014-Jul-16 10:32N 31°20' E 121°40'0 0.0
2014-Jul-16 09:33N 31°20' E 121°40'0 0.0
2014-Jul-16 08:20N 31°20' E 121°40'0 0.0
2014-Jul-16 07:19N 31°20' E 121°40'1 1.1
2014-Jul-16 06:33N 31°21' E 121°39'8 6.9
2014-Jul-16 05:25N 31°18' E 121°48'2711.5
2014-Jul-16 03:05N 31°07' E 122°17'910.8
2014-Jul-16 02:12N 31°07' E 122°28'9 1.2
2014-Jul-15 18:12N 31°13' E 122°36'15 9.1
2014-Jul-15 16:32N 31°00' E 122°45'1414.3
2014-Jul-15 15:33N 30°48' E 122°53'1714.4
2014-Jul-15 14:21N 30°32' E 123°00'3612.1
2014-Jul-15 11:22N 29°57' E 122°49'1112.6
2014-Jul-15 10:31N 29°50' E 122°39'1212.3
2014-Jul-15 09:33N 29°44' E 122°28'1212.0
2014-Jul-15 08:33N 29°48' E 122°15'1010.3
2014-Jul-15 07:33N 29°55' E 122°06'1211.9
2014-Jul-15 06:33N 29°57' E 121°53'3 2.5
2014-Jul-15 05:33N 29°57' E 121°50'0 0.0
2014-Jul-15 04:32N 29°57' E 121°50'0 0.0
2014-Jul-15 03:32N 29°57' E 121°50'0 0.0
2014-Jul-15 02:32N 29°57' E 121°50'0 0.0
2014-Jul-15 01:30N 29°57' E 121°50'0 0.0
2014-Jul-15 00:33N 29°57' E 121°50'0 0.0
2014-Jul-14 23:33N 29°57' E 121°50'0 0.0
2014-Jul-14 22:28N 29°57' E 121°50'0 0.0
2014-Jul-14 21:33N 29°57' E 121°50'0 0.0
2014-Jul-14 20:28N 29°57' E 121°50'0 0.0
2014-Jul-14 19:32N 29°57' E 121°50'0 0.0
2014-Jul-14 18:28N 29°57' E 121°50'0 0.0
2014-Jul-14 17:28N 29°57' E 121°50'3 3.3
2014-Jul-14 16:33N 29°57' E 121°53'1 0.7
2014-Jul-14 15:33N 29°57' E 121°54'0 0.1
2014-Jul-14 14:33N 29°57' E 121°54'7 6.9
2014-Jul-14 13:33N 29°56' E 122°02'1212.4
2014-Jul-14 12:33N 29°49' E 122°14'6 5.5
2014-Jul-14 11:22N 29°46' E 122°20'0 0.1
2014-Jul-14 10:22N 29°46' E 122°20'0 0.2
2014-Jul-14 09:33N 29°45' E 122°21'0 0.0
2014-Jul-14 08:27N 29°45' E 122°21'0 0.2
2014-Jul-14 07:33N 29°46' E 122°21'0 0.0
2014-Jul-14 06:14N 29°46' E 122°21'0 0.1
2014-Jul-14 05:32N 29°46' E 122°21'0 0.1
2014-Jul-14 04:33N 29°46' E 122°21'1211.8
2014-Jul-14 03:33N 29°50' E 122°33'1413.8
2014-Jul-14 02:32N 29°58' E 122°47'1814.5
2014-Jul-14 01:19N 30°09' E 123°03'  
2014-Jul-10 09:00N 38°42' E 135°36'3718.7 040 / 7993.2 2.2 23.022.321.0
2014-Jul-10 07:00N 39°00' E 136°18'15015.0 310 / 9994.0 2.2 1.023.022.322.0
2014-Jul-09 21:00N 40°30' E 138°54'   190 / 71002.0 2.2 19.719.020.0

Dump ship's entire track history